sensor_id;sensor_type;location;lat;lon;timestamp;pressure;altitude;pressure_sealevel;temperature;humidity
10202;BME280;5143;42.584;23.164;2023-07-13T00:00:36;92999.84;;;18.00;100.00
10202;BME280;5143;42.584;23.164;2023-07-13T00:03:03;92996.19;;;17.92;100.00
10202;BME280;5143;42.584;23.164;2023-07-13T00:05:31;93001.44;;;17.96;100.00
10202;BME280;5143;42.584;23.164;2023-07-13T00:07:57;92997.63;;;17.99;100.00
10202;BME280;5143;42.584;23.164;2023-07-13T00:10:24;92998.34;;;17.99;100.00
10202;BME280;5143;42.584;23.164;2023-07-13T00:12:52;92988.59;;;17.98;100.00
10202;BME280;5143;42.584;23.164;2023-07-13T00:15:23;92986.25;;;18.02;100.00
10202;BME280;5143;42.584;23.164;2023-07-13T00:17:51;92987.31;;;17.99;100.00
10202;BME280;5143;42.584;23.164;2023-07-13T00:20:18;92976.78;;;17.98;100.00
10202;BME280;5143;42.584;23.164;2023-07-13T00:22:47;92973.06;;;17.95;100.00
10202;BME280;5143;42.584;23.164;2023-07-13T00:25:14;92961.38;;;17.84;100.00
10202;BME280;5143;42.584;23.164;2023-07-13T00:27:42;92976.16;;;17.86;100.00
10202;BME280;5143;42.584;23.164;2023-07-13T00:30:11;92967.50;;;17.77;100.00
10202;BME280;5143;42.584;23.164;2023-07-13T00:32:38;92968.25;;;17.77;100.00
10202;BME280;5143;42.584;23.164;2023-07-13T00:35:05;92969.44;;;17.82;100.00
10202;BME280;5143;42.584;23.164;2023-07-13T00:37:32;92972.69;;;17.80;100.00
10202;BME280;5143;42.584;23.164;2023-07-13T00:40:01;92962.25;;;17.73;100.00
10202;BME280;5143;42.584;23.164;2023-07-13T00:42:28;92966.84;;;17.65;100.00
10202;BME280;5143;42.584;23.164;2023-07-13T00:45:06;92961.06;;;17.68;100.00
10202;BME280;5143;42.584;23.164;2023-07-13T00:47:36;92967.31;;;17.69;100.00
10202;BME280;5143;42.584;23.164;2023-07-13T00:50:04;92961.56;;;17.67;100.00
10202;BME280;5143;42.584;23.164;2023-07-13T00:52:33;92965.22;;;17.75;100.00
10202;BME280;5143;42.584;23.164;2023-07-13T00:55:02;92960.75;;;17.72;100.00
10202;BME280;5143;42.584;23.164;2023-07-13T00:57:29;92970.53;;;17.73;100.00
10202;BME280;5143;42.584;23.164;2023-07-13T00:59:59;92964.78;;;17.71;100.00
10202;BME280;5143;42.584;23.164;2023-07-13T01:02:32;92966.84;;;17.65;100.00
10202;BME280;5143;42.584;23.164;2023-07-13T01:05:01;92965.06;;;17.67;100.00
10202;BME280;5143;42.584;23.164;2023-07-13T01:07:28;92973.41;;;17.62;100.00
10202;BME280;5143;42.584;23.164;2023-07-13T01:09:54;92976.41;;;17.64;100.00
10202;BME280;5143;42.584;23.164;2023-07-13T01:12:21;92974.72;;;17.55;100.00
10202;BME280;5143;42.584;23.164;2023-07-13T01:14:48;92972.94;;;17.58;100.00
10202;BME280;5143;42.584;23.164;2023-07-13T01:17:15;92974.97;;;17.57;100.00
10202;BME280;5143;42.584;23.164;2023-07-13T01:19:44;92978.72;;;17.60;100.00
10202;BME280;5143;42.584;23.164;2023-07-13T01:22:14;92975.00;;;17.52;100.00
10202;BME280;5143;42.584;23.164;2023-07-13T01:24:43;92969.69;;;17.30;100.00
10202;BME280;5143;42.584;23.164;2023-07-13T01:27:12;92968.88;;;17.35;100.00
10202;BME280;5143;42.584;23.164;2023-07-13T01:29:40;92965.59;;;17.36;100.00
10202;BME280;5143;42.584;23.164;2023-07-13T01:32:08;92965.09;;;17.38;100.00
10202;BME280;5143;42.584;23.164;2023-07-13T01:34:35;92964.06;;;17.41;100.00
10202;BME280;5143;42.584;23.164;2023-07-13T01:37:04;92948.53;;;17.38;100.00
10202;BME280;5143;42.584;23.164;2023-07-13T01:39:32;92957.28;;;17.42;100.00
10202;BME280;5143;42.584;23.164;2023-07-13T01:41:59;92950.50;;;17.43;100.00
10202;BME280;5143;42.584;23.164;2023-07-13T01:44:26;92952.78;;;17.39;100.00
10202;BME280;5143;42.584;23.164;2023-07-13T01:46:53;92947.03;;;17.37;100.00
10202;BME280;5143;42.584;23.164;2023-07-13T01:49:20;92950.72;;;17.21;100.00
10202;BME280;5143;42.584;23.164;2023-07-13T01:51:47;92951.34;;;17.08;100.00
10202;BME280;5143;42.584;23.164;2023-07-13T01:54:14;92948.28;;;17.11;100.00
10202;BME280;5143;42.584;23.164;2023-07-13T01:56:42;92953.25;;;17.19;100.00
10202;BME280;5143;42.584;23.164;2023-07-13T01:59:09;92956.09;;;17.07;100.00
10202;BME280;5143;42.584;23.164;2023-07-13T02:01:36;92952.63;;;17.01;100.00
10202;BME280;5143;42.584;23.164;2023-07-13T02:04:03;92955.38;;;17.01;100.00
10202;BME280;5143;42.584;23.164;2023-07-13T02:06:30;92968.38;;;17.06;100.00
10202;BME280;5143;42.584;23.164;2023-07-13T02:08:57;92963.34;;;17.10;100.00
10202;BME280;5143;42.584;23.164;2023-07-13T02:11:24;92958.59;;;17.11;100.00
10202;BME280;5143;42.584;23.164;2023-07-13T02:13:59;92962.88;;;17.06;100.00
10202;BME280;5143;42.584;23.164;2023-07-13T02:16:26;92956.84;;;17.08;100.00
10202;BME280;5143;42.584;23.164;2023-07-13T02:18:52;92965.41;;;17.04;100.00
10202;BME280;5143;42.584;23.164;2023-07-13T02:21:21;92967.94;;;17.02;100.00
10202;BME280;5143;42.584;23.164;2023-07-13T02:23:48;92964.69;;;16.98;100.00
10202;BME280;5143;42.584;23.164;2023-07-13T02:26:14;92962.97;;;16.95;100.00
10202;BME280;5143;42.584;23.164;2023-07-13T02:28:41;92967.44;;;16.98;100.00
10202;BME280;5143;42.584;23.164;2023-07-13T02:31:12;92959.41;;;17.00;100.00
10202;BME280;5143;42.584;23.164;2023-07-13T02:33:39;92968.19;;;16.99;100.00
10202;BME280;5143;42.584;23.164;2023-07-13T02:36:07;92966.25;;;16.94;100.00
10202;BME280;5143;42.584;23.164;2023-07-13T02:38:34;92960.53;;;16.86;100.00
10202;BME280;5143;42.584;23.164;2023-07-13T02:41:01;92959.25;;;16.87;100.00
10202;BME280;5143;42.584;23.164;2023-07-13T02:43:28;92958.72;;;16.94;100.00
10202;BME280;5143;42.584;23.164;2023-07-13T02:45:55;92956.50;;;16.87;100.00
10202;BME280;5143;42.584;23.164;2023-07-13T02:48:23;92963.56;;;16.83;100.00
10202;BME280;5143;42.584;23.164;2023-07-13T02:50:50;92963.38;;;16.75;100.00
10202;BME280;5143;42.584;23.164;2023-07-13T02:53:16;92973.13;;;16.76;100.00
10202;BME280;5143;42.584;23.164;2023-07-13T02:55:43;92969.59;;;16.81;100.00
10202;BME280;5143;42.584;23.164;2023-07-13T02:58:12;92962.59;;;16.80;100.00
10202;BME280;5143;42.584;23.164;2023-07-13T03:00:42;92970.06;;;16.85;100.00
10202;BME280;5143;42.584;23.164;2023-07-13T03:03:09;92965.31;;;16.86;100.00
10202;BME280;5143;42.584;23.164;2023-07-13T03:05:41;92964.56;;;16.85;100.00
10202;BME280;5143;42.584;23.164;2023-07-13T03:08:09;92977.28;;;16.94;100.00
10202;BME280;5143;42.584;23.164;2023-07-13T03:10:36;92964.72;;;16.93;100.00
10202;BME280;5143;42.584;23.164;2023-07-13T03:13:02;92965.22;;;16.97;100.00
10202;BME280;5143;42.584;23.164;2023-07-13T03:15:29;92963.72;;;16.96;100.00
10202;BME280;5143;42.584;23.164;2023-07-13T03:17:56;92960.91;;;17.01;100.00
10202;BME280;5143;42.584;23.164;2023-07-13T03:20:23;92954.81;;;17.08;100.00
10202;BME280;5143;42.584;23.164;2023-07-13T03:22:51;92960.25;;;17.20;100.00
10202;BME280;5143;42.584;23.164;2023-07-13T03:25:17;92962.50;;;17.21;100.00
10202;BME280;5143;42.584;23.164;2023-07-13T03:27:44;92965.53;;;17.18;100.00
10202;BME280;5143;42.584;23.164;2023-07-13T03:30:12;92969.75;;;17.24;100.00
10202;BME280;5143;42.584;23.164;2023-07-13T03:32:39;92974.91;;;17.33;100.00
10202;BME280;5143;42.584;23.164;2023-07-13T03:35:06;92979.13;;;17.40;100.00
10202;BME280;5143;42.584;23.164;2023-07-13T03:37:33;92970.50;;;17.49;100.00
10202;BME280;5143;42.584;23.164;2023-07-13T03:40:01;92975.47;;;17.56;100.00
10202;BME280;5143;42.584;23.164;2023-07-13T03:42:27;92979.41;;;17.66;100.00
10202;BME280;5143;42.584;23.164;2023-07-13T03:44:54;92986.69;;;17.63;100.00
10202;BME280;5143;42.584;23.164;2023-07-13T03:47:21;92984.94;;;17.66;100.00
10202;BME280;5143;42.584;23.164;2023-07-13T03:49:48;92982.84;;;17.72;100.00
10202;BME280;5143;42.584;23.164;2023-07-13T03:52:15;92978.22;;;17.80;100.00
10202;BME280;5143;42.584;23.164;2023-07-13T03:54:41;92983.19;;;17.87;100.00
10202;BME280;5143;42.584;23.164;2023-07-13T03:57:09;92979.53;;;17.98;100.00
10202;BME280;5143;42.584;23.164;2023-07-13T03:59:36;92979.69;;;18.05;100.00
10202;BME280;5143;42.584;23.164;2023-07-13T04:02:03;92972.78;;;18.17;100.00
10202;BME280;5143;42.584;23.164;2023-07-13T04:04:31;92985.84;;;18.36;100.00
10202;BME280;5143;42.584;23.164;2023-07-13T04:06:58;92979.38;;;18.52;100.00
10202;BME280;5143;42.584;23.164;2023-07-13T04:09:25;92983.28;;;18.62;100.00
10202;BME280;5143;42.584;23.164;2023-07-13T04:11:51;92980.56;;;18.75;100.00
10202;BME280;5143;42.584;23.164;2023-07-13T04:14:20;92968.59;;;18.85;100.00
10202;BME280;5143;42.584;23.164;2023-07-13T04:16:46;92973.00;;;18.94;100.00
10202;BME280;5143;42.584;23.164;2023-07-13T04:19:13;92961.97;;;19.07;100.00
10202;BME280;5143;42.584;23.164;2023-07-13T04:21:40;92968.63;;;19.30;100.00
10202;BME280;5143;42.584;23.164;2023-07-13T04:24:07;92958.56;;;19.46;100.00
10202;BME280;5143;42.584;23.164;2023-07-13T04:26:34;92972.25;;;19.96;100.00
10202;BME280;5143;42.584;23.164;2023-07-13T04:29:04;92979.47;;;21.61;100.00
10202;BME280;5143;42.584;23.164;2023-07-13T04:31:32;92982.53;;;23.36;100.00
10202;BME280;5143;42.584;23.164;2023-07-13T04:33:59;92969.25;;;24.50;100.00
10202;BME280;5143;42.584;23.164;2023-07-13T04:36:26;92994.88;;;26.01;94.95
10202;BME280;5143;42.584;23.164;2023-07-13T04:38:53;92989.59;;;27.15;84.59
10202;BME280;5143;42.584;23.164;2023-07-13T04:41:20;92995.22;;;27.69;81.22
10202;BME280;5143;42.584;23.164;2023-07-13T04:43:48;92999.66;;;28.83;72.27
10202;BME280;5143;42.584;23.164;2023-07-13T04:46:16;93011.81;;;30.23;63.53
10202;BME280;5143;42.584;23.164;2023-07-13T04:48:46;93018.56;;;30.39;60.95
10202;BME280;5143;42.584;23.164;2023-07-13T04:51:12;93034.06;;;31.56;57.37
10202;BME280;5143;42.584;23.164;2023-07-13T04:53:39;93036.50;;;32.18;53.23
10202;BME280;5143;42.584;23.164;2023-07-13T04:56:06;93042.75;;;32.97;52.13
10202;BME280;5143;42.584;23.164;2023-07-13T04:58:33;93033.22;;;33.53;49.92
10202;BME280;5143;42.584;23.164;2023-07-13T05:01:01;93043.31;;;34.06;48.42
10202;BME280;5143;42.584;23.164;2023-07-13T05:03:28;93047.41;;;33.78;47.14
10202;BME280;5143;42.584;23.164;2023-07-13T05:05:59;93055.13;;;33.52;48.38
10202;BME280;5143;42.584;23.164;2023-07-13T05:08:26;93048.66;;;33.38;45.53
10202;BME280;5143;42.584;23.164;2023-07-13T05:10:53;93056.63;;;33.53;44.96
10202;BME280;5143;42.584;23.164;2023-07-13T05:13:21;93060.25;;;34.18;44.90
10202;BME280;5143;42.584;23.164;2023-07-13T05:15:55;93064.00;;;35.02;43.17
10202;BME280;5143;42.584;23.164;2023-07-13T05:18:22;93075.38;;;35.72;41.62
10202;BME280;5143;42.584;23.164;2023-07-13T05:20:58;93068.78;;;35.54;41.46
10202;BME280;5143;42.584;23.164;2023-07-13T05:23:25;93070.91;;;35.40;41.48
10202;BME280;5143;42.584;23.164;2023-07-13T05:25:52;93074.63;;;36.01;40.97
10202;BME280;5143;42.584;23.164;2023-07-13T05:28:19;93084.28;;;36.54;41.44
10202;BME280;5143;42.584;23.164;2023-07-13T05:30:46;93081.34;;;36.84;39.65
10202;BME280;5143;42.584;23.164;2023-07-13T05:33:14;93080.63;;;37.32;38.80
10202;BME280;5143;42.584;23.164;2023-07-13T05:35:41;93084.34;;;37.03;38.95
10202;BME280;5143;42.584;23.164;2023-07-13T05:38:09;93078.47;;;36.37;39.47
10202;BME280;5143;42.584;23.164;2023-07-13T05:40:35;93082.59;;;36.34;39.37
10202;BME280;5143;42.584;23.164;2023-07-13T05:43:03;93083.63;;;36.72;39.46
10202;BME280;5143;42.584;23.164;2023-07-13T05:45:29;93089.25;;;37.34;38.84
10202;BME280;5143;42.584;23.164;2023-07-13T05:47:56;93078.75;;;37.54;37.76
10202;BME280;5143;42.584;23.164;2023-07-13T05:50:23;93107.13;;;38.03;37.16
10202;BME280;5143;42.584;23.164;2023-07-13T05:52:50;93103.38;;;38.16;37.10
10202;BME280;5143;42.584;23.164;2023-07-13T05:55:19;93111.44;;;39.14;36.05
10202;BME280;5143;42.584;23.164;2023-07-13T05:57:46;93107.94;;;39.35;35.65
10202;BME280;5143;42.584;23.164;2023-07-13T06:00:13;93099.41;;;39.18;35.65
10202;BME280;5143;42.584;23.164;2023-07-13T06:02:40;93100.47;;;40.09;34.53
10202;BME280;5143;42.584;23.164;2023-07-13T06:05:08;93091.81;;;40.07;33.70
10202;BME280;5143;42.584;23.164;2023-07-13T06:07:34;93085.22;;;40.02;33.74
10202;BME280;5143;42.584;23.164;2023-07-13T06:10:01;93096.41;;;41.09;32.94
10202;BME280;5143;42.584;23.164;2023-07-13T06:12:30;93089.72;;;41.00;33.09
10202;BME280;5143;42.584;23.164;2023-07-13T06:14:57;93080.66;;;40.39;33.93
10202;BME280;5143;42.584;23.164;2023-07-13T06:17:23;93080.22;;;40.25;34.47
10202;BME280;5143;42.584;23.164;2023-07-13T06:19:50;93096.00;;;39.63;35.50
10202;BME280;5143;42.584;23.164;2023-07-13T06:22:17;93092.41;;;38.81;36.70
10202;BME280;5143;42.584;23.164;2023-07-13T06:24:44;93098.34;;;39.27;36.62
10202;BME280;5143;42.584;23.164;2023-07-13T06:27:10;93075.22;;;39.60;37.16
10202;BME280;5143;42.584;23.164;2023-07-13T06:29:38;93076.97;;;39.69;36.02
10202;BME280;5143;42.584;23.164;2023-07-13T06:32:07;93073.78;;;38.80;37.86
10202;BME280;5143;42.584;23.164;2023-07-13T06:34:34;93069.63;;;39.03;38.17
10202;BME280;5143;42.584;23.164;2023-07-13T06:37:01;93080.09;;;39.36;38.77
10202;BME280;5143;42.584;23.164;2023-07-13T06:39:27;93077.56;;;39.87;38.43
10202;BME280;5143;42.584;23.164;2023-07-13T06:41:54;93080.84;;;40.45;36.34
10202;BME280;5143;42.584;23.164;2023-07-13T06:44:21;93091.84;;;41.77;35.33
10202;BME280;5143;42.584;23.164;2023-07-13T06:46:49;93109.97;;;42.73;32.05
10202;BME280;5143;42.584;23.164;2023-07-13T06:49:16;93095.88;;;43.19;32.46
10202;BME280;5143;42.584;23.164;2023-07-13T06:51:43;93095.16;;;41.95;32.35
10202;BME280;5143;42.584;23.164;2023-07-13T06:54:10;93095.22;;;41.97;28.97
10202;BME280;5143;42.584;23.164;2023-07-13T06:56:37;93087.03;;;41.58;29.36
10202;BME280;5143;42.584;23.164;2023-07-13T06:59:03;93091.63;;;41.17;28.62
10202;BME280;5143;42.584;23.164;2023-07-13T07:01:30;93079.31;;;40.42;28.74
10202;BME280;5143;42.584;23.164;2023-07-13T07:03:58;93083.28;;;39.46;30.84
10202;BME280;5143;42.584;23.164;2023-07-13T07:06:26;93081.66;;;39.61;29.15
10202;BME280;5143;42.584;23.164;2023-07-13T07:08:53;93079.69;;;39.45;33.21
10202;BME280;5143;42.584;23.164;2023-07-13T07:11:22;93082.09;;;39.53;29.36
10202;BME280;5143;42.584;23.164;2023-07-13T07:13:50;93081.03;;;39.84;29.16
10202;BME280;5143;42.584;23.164;2023-07-13T07:16:18;93067.72;;;39.92;29.72
10202;BME280;5143;42.584;23.164;2023-07-13T07:18:45;93081.63;;;39.80;29.46
10202;BME280;5143;42.584;23.164;2023-07-13T07:21:14;93091.13;;;40.52;29.62
10202;BME280;5143;42.584;23.164;2023-07-13T07:23:41;93081.44;;;39.96;28.85
10202;BME280;5143;42.584;23.164;2023-07-13T07:26:08;93083.53;;;39.13;29.66
10202;BME280;5143;42.584;23.164;2023-07-13T07:28:36;93081.69;;;39.82;29.55
10202;BME280;5143;42.584;23.164;2023-07-13T07:31:02;93080.59;;;39.50;30.48
10202;BME280;5143;42.584;23.164;2023-07-13T07:33:29;93073.59;;;39.33;29.15
10202;BME280;5143;42.584;23.164;2023-07-13T07:35:56;93084.34;;;40.65;28.55
10202;BME280;5143;42.584;23.164;2023-07-13T07:38:24;93078.34;;;40.33;28.70
10202;BME280;5143;42.584;23.164;2023-07-13T07:40:52;93084.44;;;40.45;28.40
10202;BME280;5143;42.584;23.164;2023-07-13T07:43:19;93074.66;;;39.44;29.20
10202;BME280;5143;42.584;23.164;2023-07-13T07:45:45;93071.22;;;39.08;29.34
10202;BME280;5143;42.584;23.164;2023-07-13T07:48:13;93063.41;;;38.89;29.98
10202;BME280;5143;42.584;23.164;2023-07-13T07:50:39;93061.66;;;39.61;29.35
10202;BME280;5143;42.584;23.164;2023-07-13T07:53:07;93068.03;;;39.59;27.95
10202;BME280;5143;42.584;23.164;2023-07-13T07:55:37;93060.31;;;39.42;28.55
10202;BME280;5143;42.584;23.164;2023-07-13T07:58:05;93066.63;;;39.38;28.20
10202;BME280;5143;42.584;23.164;2023-07-13T08:00:32;93069.00;;;39.46;28.49
10202;BME280;5143;42.584;23.164;2023-07-13T08:03:01;93055.75;;;39.76;26.48
10202;BME280;5143;42.584;23.164;2023-07-13T08:05:28;93056.69;;;39.20;27.64
10202;BME280;5143;42.584;23.164;2023-07-13T08:07:55;93045.47;;;38.49;26.62
10202;BME280;5143;42.584;23.164;2023-07-13T08:10:22;93043.56;;;38.36;26.95
10202;BME280;5143;42.584;23.164;2023-07-13T08:12:50;93050.63;;;38.53;27.66
10202;BME280;5143;42.584;23.164;2023-07-13T08:15:17;93038.22;;;38.83;27.29
10202;BME280;5143;42.584;23.164;2023-07-13T08:17:46;93044.00;;;39.66;26.67
10202;BME280;5143;42.584;23.164;2023-07-13T08:20:13;93038.59;;;38.19;27.80
10202;BME280;5143;42.584;23.164;2023-07-13T08:22:40;93023.53;;;37.12;27.27
10202;BME280;5143;42.584;23.164;2023-07-13T08:25:07;93023.66;;;36.99;28.45
10202;BME280;5143;42.584;23.164;2023-07-13T08:27:34;93029.69;;;36.58;28.48
10202;BME280;5143;42.584;23.164;2023-07-13T08:30:03;93019.19;;;36.16;27.97
10202;BME280;5143;42.584;23.164;2023-07-13T08:32:31;93012.31;;;35.60;28.58
10202;BME280;5143;42.584;23.164;2023-07-13T08:34:57;93022.81;;;35.01;32.32
10202;BME280;5143;42.584;23.164;2023-07-13T08:37:24;93010.94;;;35.18;31.87
10202;BME280;5143;42.584;23.164;2023-07-13T08:39:51;93006.13;;;34.66;32.41
10202;BME280;5143;42.584;23.164;2023-07-13T08:42:30;93002.06;;;34.03;33.92
10202;BME280;5143;42.584;23.164;2023-07-13T08:45:12;92996.75;;;33.84;33.81
10202;BME280;5143;42.584;23.164;2023-07-13T08:47:44;92991.84;;;33.34;34.39
10202;BME280;5143;42.584;23.164;2023-07-13T08:50:14;92990.66;;;33.51;35.17
10202;BME280;5143;42.584;23.164;2023-07-13T08:52:43;92986.22;;;33.48;34.58
10202;BME280;5143;42.584;23.164;2023-07-13T08:55:13;92998.13;;;33.83;35.05
10202;BME280;5143;42.584;23.164;2023-07-13T08:57:44;92997.81;;;33.91;33.38
10202;BME280;5143;42.584;23.164;2023-07-13T09:00:14;92995.00;;;34.04;34.50
10202;BME280;5143;42.584;23.164;2023-07-13T09:02:45;93006.47;;;34.06;33.66
10202;BME280;5143;42.584;23.164;2023-07-13T09:05:18;93012.91;;;34.34;33.44
10202;BME280;5143;42.584;23.164;2023-07-13T09:08:00;93013.25;;;34.54;33.18
10202;BME280;5143;42.584;23.164;2023-07-13T09:10:31;93023.63;;;34.22;35.21
10202;BME280;5143;42.584;23.164;2023-07-13T09:13:11;93017.00;;;34.17;32.72
10202;BME280;5143;42.584;23.164;2023-07-13T09:15:44;93021.97;;;34.44;34.05
10202;BME280;5143;42.584;23.164;2023-07-13T09:18:16;93026.50;;;34.76;32.36
10202;BME280;5143;42.584;23.164;2023-07-13T09:20:49;93023.56;;;34.47;31.51
10202;BME280;5143;42.584;23.164;2023-07-13T09:23:21;93027.41;;;34.54;30.23
10202;BME280;5143;42.584;23.164;2023-07-13T09:25:50;93032.09;;;34.61;30.18
10202;BME280;5143;42.584;23.164;2023-07-13T09:28:23;93030.84;;;34.64;29.39
10202;BME280;5143;42.584;23.164;2023-07-13T09:30:58;93030.41;;;34.83;31.19
10202;BME280;5143;42.584;23.164;2023-07-13T09:33:28;93040.75;;;34.37;32.05
10202;BME280;5143;42.584;23.164;2023-07-13T09:35:56;93038.72;;;34.13;32.10
10202;BME280;5143;42.584;23.164;2023-07-13T09:38:25;93044.09;;;34.34;29.61
10202;BME280;5143;42.584;23.164;2023-07-13T09:41:01;93034.19;;;34.87;30.80
10202;BME280;5143;42.584;23.164;2023-07-13T09:43:29;93032.94;;;34.77;29.72
10202;BME280;5143;42.584;23.164;2023-07-13T09:45:58;93034.19;;;34.74;30.50
10202;BME280;5143;42.584;23.164;2023-07-13T09:48:25;93037.91;;;34.37;30.89
10202;BME280;5143;42.584;23.164;2023-07-13T09:50:55;93038.88;;;34.03;31.03
10202;BME280;5143;42.584;23.164;2023-07-13T09:53:22;93021.53;;;33.58;29.45
10202;BME280;5143;42.584;23.164;2023-07-13T09:55:49;93012.47;;;34.12;30.82
10202;BME280;5143;42.584;23.164;2023-07-13T09:58:18;93016.91;;;34.42;28.08
10202;BME280;5143;42.584;23.164;2023-07-13T10:00:55;93008.31;;;34.40;29.95
10202;BME280;5143;42.584;23.164;2023-07-13T10:03:26;93001.16;;;34.39;32.61
10202;BME280;5143;42.584;23.164;2023-07-13T10:05:53;93003.16;;;34.51;33.14
10202;BME280;5143;42.584;23.164;2023-07-13T10:08:23;93003.09;;;34.62;33.43
10202;BME280;5143;42.584;23.164;2023-07-13T10:10:57;92995.22;;;34.74;33.23
10202;BME280;5143;42.584;23.164;2023-07-13T10:13:31;92990.56;;;34.81;33.64
10202;BME280;5143;42.584;23.164;2023-07-13T10:15:59;92988.28;;;34.77;32.36
10202;BME280;5143;42.584;23.164;2023-07-13T10:18:28;92986.47;;;34.84;31.96
10202;BME280;5143;42.584;23.164;2023-07-13T10:21:09;92983.63;;;34.84;31.60
10202;BME280;5143;42.584;23.164;2023-07-13T10:23:37;92990.03;;;34.84;31.74
10202;BME280;5143;42.584;23.164;2023-07-13T10:26:05;92989.81;;;35.08;32.13
10202;BME280;5143;42.584;23.164;2023-07-13T10:28:40;92979.00;;;34.90;32.43
10202;BME280;5143;42.584;23.164;2023-07-13T10:31:12;92978.34;;;34.92;33.13
10202;BME280;5143;42.584;23.164;2023-07-13T10:33:41;92983.72;;;35.13;32.54
10202;BME280;5143;42.584;23.164;2023-07-13T10:36:16;92980.47;;;34.91;31.68
10202;BME280;5143;42.584;23.164;2023-07-13T10:38:45;92989.19;;;35.09;32.14
10202;BME280;5143;42.584;23.164;2023-07-13T10:41:17;92974.66;;;35.03;32.95
10202;BME280;5143;42.584;23.164;2023-07-13T10:43:47;92981.03;;;35.31;32.41
10202;BME280;5143;42.584;23.164;2023-07-13T10:46:19;92975.28;;;35.15;32.15
10202;BME280;5143;42.584;23.164;2023-07-13T10:48:52;92976.03;;;35.16;32.74
10202;BME280;5143;42.584;23.164;2023-07-13T10:51:21;92968.44;;;35.20;32.23
10202;BME280;5143;42.584;23.164;2023-07-13T10:54:18;92970.22;;;35.14;32.29
10202;BME280;5143;42.584;23.164;2023-07-13T10:56:50;92972.84;;;34.80;32.58
10202;BME280;5143;42.584;23.164;2023-07-13T10:59:18;92961.53;;;35.10;33.18
10202;BME280;5143;42.584;23.164;2023-07-13T11:01:55;92954.16;;;35.18;32.38
10202;BME280;5143;42.584;23.164;2023-07-13T11:04:24;92950.31;;;34.84;33.40
10202;BME280;5143;42.584;23.164;2023-07-13T11:06:57;92945.06;;;34.79;33.19
10202;BME280;5143;42.584;23.164;2023-07-13T11:09:34;92949.19;;;34.76;33.11
10202;BME280;5143;42.584;23.164;2023-07-13T11:12:06;92948.41;;;34.89;33.02
10202;BME280;5143;42.584;23.164;2023-07-13T11:14:36;92941.88;;;35.00;31.97
10202;BME280;5143;42.584;23.164;2023-07-13T11:17:34;92931.53;;;34.77;33.27
10202;BME280;5143;42.584;23.164;2023-07-13T11:20:19;92921.06;;;35.09;33.26
10202;BME280;5143;42.584;23.164;2023-07-13T11:22:49;92930.56;;;34.86;32.00
10202;BME280;5143;42.584;23.164;2023-07-13T11:25:28;92923.91;;;34.95;32.08
10202;BME280;5143;42.584;23.164;2023-07-13T11:28:15;92922.63;;;35.12;31.90
10202;BME280;5143;42.584;23.164;2023-07-13T11:30:44;92923.81;;;35.07;31.66
10202;BME280;5143;42.584;23.164;2023-07-13T11:33:18;92927.13;;;35.17;30.98
10202;BME280;5143;42.584;23.164;2023-07-13T11:35:53;92924.59;;;34.80;32.17
10202;BME280;5143;42.584;23.164;2023-07-13T11:38:30;92922.88;;;34.89;33.01
10202;BME280;5143;42.584;23.164;2023-07-13T11:41:01;92914.19;;;34.85;33.37
10202;BME280;5143;42.584;23.164;2023-07-13T11:43:30;92906.56;;;34.60;32.25
10202;BME280;5143;42.584;23.164;2023-07-13T11:45:58;92908.53;;;34.71;33.08
10202;BME280;5143;42.584;23.164;2023-07-13T11:48:27;92916.38;;;34.86;33.75
10202;BME280;5143;42.584;23.164;2023-07-13T11:51:01;92912.34;;;34.91;32.58
10202;BME280;5143;42.584;23.164;2023-07-13T11:53:36;92916.16;;;34.96;32.64
10202;BME280;5143;42.584;23.164;2023-07-13T11:56:05;92896.38;;;34.69;32.02
10202;BME280;5143;42.584;23.164;2023-07-13T11:58:32;92905.78;;;35.16;32.41
10202;BME280;5143;42.584;23.164;2023-07-13T12:01:02;92907.97;;;35.47;32.34
10202;BME280;5143;42.584;23.164;2023-07-13T12:03:32;92907.06;;;35.42;30.27
10202;BME280;5143;42.584;23.164;2023-07-13T12:06:02;92911.06;;;35.37;32.58
10202;BME280;5143;42.584;23.164;2023-07-13T12:08:37;92901.06;;;35.36;32.11
10202;BME280;5143;42.584;23.164;2023-07-13T12:11:09;92897.69;;;35.40;32.87
10202;BME280;5143;42.584;23.164;2023-07-13T12:13:38;92880.13;;;35.43;32.02
10202;BME280;5143;42.584;23.164;2023-07-13T12:16:14;92896.72;;;35.49;32.72
10202;BME280;5143;42.584;23.164;2023-07-13T12:18:43;92900.63;;;35.42;32.28
10202;BME280;5143;42.584;23.164;2023-07-13T12:21:17;92899.22;;;35.27;31.41
10202;BME280;5143;42.584;23.164;2023-07-13T12:23:45;92893.66;;;35.29;32.43
10202;BME280;5143;42.584;23.164;2023-07-13T12:26:15;92884.03;;;35.36;31.75
10202;BME280;5143;42.584;23.164;2023-07-13T12:28:46;92874.28;;;35.10;31.40
10202;BME280;5143;42.584;23.164;2023-07-13T12:31:26;92871.94;;;35.36;33.98
10202;BME280;5143;42.584;23.164;2023-07-13T12:33:57;92864.78;;;34.90;32.82
10202;BME280;5143;42.584;23.164;2023-07-13T12:36:25;92863.69;;;35.26;32.87
10202;BME280;5143;42.584;23.164;2023-07-13T12:38:54;92867.47;;;35.46;32.42
10202;BME280;5143;42.584;23.164;2023-07-13T12:41:22;92869.34;;;35.56;29.13
10202;BME280;5143;42.584;23.164;2023-07-13T12:43:49;92861.25;;;35.50;31.90
10202;BME280;5143;42.584;23.164;2023-07-13T12:46:17;92852.88;;;35.68;31.62
10202;BME280;5143;42.584;23.164;2023-07-13T12:48:48;92861.19;;;35.64;30.66
10202;BME280;5143;42.584;23.164;2023-07-13T12:51:15;92860.72;;;35.53;31.44
10202;BME280;5143;42.584;23.164;2023-07-13T12:53:48;92844.22;;;35.50;29.11
10202;BME280;5143;42.584;23.164;2023-07-13T12:56:19;92845.69;;;35.51;30.66
10202;BME280;5143;42.584;23.164;2023-07-13T12:58:48;92857.03;;;35.35;29.62
10202;BME280;5143;42.584;23.164;2023-07-13T13:01:21;92847.13;;;35.36;31.07
10202;BME280;5143;42.584;23.164;2023-07-13T13:03:51;92846.00;;;35.73;30.89
10202;BME280;5143;42.584;23.164;2023-07-13T13:06:23;92842.66;;;35.94;31.36